Time;durP1;ratioP1;P1;durP2;ratioP2;P2;SDS_P1;SDS_P2;PMS_P1;PMS_P2;Temp;Humidity;BMP_temperature;BMP_pressure;BME280_temperature;BME280_humidity;BME280_pressure;Samples;Min_cycle;Max_cycle;Signal;HPM_P1;HPM_P2
2022/06/17 00:01:11;;;;;;;;;;;;;;;;;;4986790;28;19965;-85
2022/06/17 00:03:37;;;;;;;;;;;;;;;;;;4989265;28;19920;-85
2022/06/17 00:06:02;;;;;;;;;;;;;;;;;;4989412;28;20280;-85
2022/06/17 00:08:28;;;;;;;;;;;;;;;;;;4989338;28;19920;-85
2022/06/17 00:10:54;;;;;;;;;;;;;;;;;;4989691;28;19917;-85
2022/06/17 00:13:20;;;;;;;;;;;;;;;;;;4988317;28;20012;-85
2022/06/17 00:15:47;;;;;;;;;;;;;;;;;;4985960;28;20395;-85
2022/06/17 00:18:13;;;;;;;;;;;;;;;;;;4989227;28;19921;-85
2022/06/17 00:20:39;;;;;;;;;;;;;;;;;;4987152;28;19924;-85
2022/06/17 00:23:05;;;;;;;;;;;;;;;;;;4985391;28;19917;-85
2022/06/17 00:25:31;;;;;;;;;;;;;;;;;;4986418;28;20012;-85
2022/06/17 00:27:57;;;;;;;;;;;;;;;;;;4986982;28;20396;-85
2022/06/17 00:30:23;;;;;;;;;;;;;;;;;;4990833;28;20014;-85
2022/06/17 00:32:49;;;;;;;;;;;;;;;;;;4991860;28;19925;-85
2022/06/17 00:35:15;;;;;;;;;;;;;;;;;;4989549;28;19971;-85
2022/06/17 00:37:41;;;;;;;;;;;;;;;;;;5005620;28;19917;-85
2022/06/17 00:40:07;;;;;;;;;;;;;;;;;;5003333;28;19920;-85
2022/06/17 00:42:33;;;;;;;;;;;;;;;;;;5004664;28;19927;-85
2022/06/17 00:44:58;;;;;;;;;;;;;;;;;;4985759;28;19917;-85
2022/06/17 00:47:24;;;;;;;;;;;;;;;;;;4987559;28;19917;-85
2022/06/17 00:49:50;;;;;;;;;;;;;;;;;;4986264;28;19932;-85
2022/06/17 00:52:16;;;;;;;;;;;;;;;;;;4988296;28;19924;-86
2022/06/17 00:54:42;;;;;;;;;;;;;;;;;;4991665;28;20365;-85
2022/06/17 00:57:08;;;;;;;;;;;;;;;;;;4993335;28;19928;-85
2022/06/17 00:59:34;;;;;;;;;;;;;;;;;;4992670;28;19940;-85
2022/06/17 01:02:00;;;;;;;;;;;;;;;;;;4995436;28;19929;-86
2022/06/17 01:04:26;;;;;;;;;;;;;;;;;;4993431;28;19921;-85
2022/06/17 01:06:52;;;;;;;;;;;;;;;;;;4994753;28;19917;-85
2022/06/17 01:12:02;;;;;;;;;;;;;;;;;;5008227;28;19926;-87
2022/06/17 01:14:29;;;;;;;;;;;;;;;;;;4994344;28;19921;-86
2022/06/17 01:16:55;;;;;;;;;;;;;;;;;;4992614;28;19917;-86
2022/06/17 01:19:20;;;;;;;;;;;;;;;;;;5010331;28;20376;-86
2022/06/17 01:21:46;;;;;;;;;;;;;;;;;;4994072;28;19925;-86
2022/06/17 01:24:12;;;;;;;;;;;;;;;;;;4991990;28;20383;-87
2022/06/17 01:26:38;;;;;;;;;;;;;;;;;;4992180;28;19918;-87
2022/06/17 01:29:04;;;;;;;;;;;;;;;;;;4994542;28;19971;-87
2022/06/17 01:31:31;;;;;;;;;;;;;;;;;;4994399;28;19964;-87
2022/06/17 01:33:57;;;;;;;;;;;;;;;;;;5010706;28;19924;-87
2022/06/17 01:36:23;;;;;;;;;;;;;;;;;;4993543;28;19933;-87
2022/06/17 01:38:49;;;;;;;;;;;;;;;;;;4993021;28;20015;-87
2022/06/17 01:41:15;;;;;;;;;;;;;;;;;;4992850;28;19921;-86
2022/06/17 01:43:41;;;;;;;;;;;;;;;;;;4986952;28;19917;-86
2022/06/17 01:46:08;;;;;;;;;;;;;;;;;;4984850;28;19917;-86
2022/06/17 01:48:34;;;;;;;;;;;;;;;;;;4985104;28;20282;-85
2022/06/17 01:51:00;;;;;;;;;;;;;;;;;;4985259;28;19944;-86
2022/06/17 01:53:27;;;;;;;;;;;;;;;;;;4984922;28;19971;-85
2022/06/17 01:55:53;;;;;;;;;;;;;;;;;;4984597;28;19918;-86
2022/06/17 01:58:19;;;;;;;;;;;;;;;;;;4984589;28;19924;-86
2022/06/17 02:00:46;;;;;;;;;;;;;;;;;;4984467;28;19980;-86
2022/06/17 02:03:12;;;;;;;;;;;;;;;;;;4984513;28;19972;-86
2022/06/17 02:05:38;;;;;;;;;;;;;;;;;;4998711;28;20448;-86
2022/06/17 02:08:04;;;;;;;;;;;;;;;;;;4981717;28;19960;-85
2022/06/17 02:10:30;;;;;;;;;;;;;;;;;;4997741;28;19921;-87
2022/06/17 02:12:56;;;;;;;;;;;;;;;;;;4981418;28;19925;-87
2022/06/17 02:15:22;;;;;;;;;;;;;;;;;;4981261;28;20321;-86
2022/06/17 02:17:47;;;;;;;;;;;;;;;;;;4981602;28;19936;-87
2022/06/17 02:20:13;;;;;;;;;;;;;;;;;;4997794;28;19929;-86
2022/06/17 02:22:39;;;;;;;;;;;;;;;;;;4981134;28;19924;-87
2022/06/17 02:25:05;;;;;;;;;;;;;;;;;;4997416;28;19917;-87
2022/06/17 02:27:31;;;;;;;;;;;;;;;;;;4981122;28;19927;-87
2022/06/17 02:29:57;;;;;;;;;;;;;;;;;;4997281;28;19917;-87
2022/06/17 02:32:23;;;;;;;;;;;;;;;;;;4980948;28;19975;-86
2022/06/17 02:34:49;;;;;;;;;;;;;;;;;;4997318;28;19971;-87
2022/06/17 02:37:15;;;;;;;;;;;;;;;;;;4981145;28;19917;-87
2022/06/17 02:39:41;;;;;;;;;;;;;;;;;;4980755;28;19924;-87
2022/06/17 02:42:06;;;;;;;;;;;;;;;;;;4980776;28;19925;-86
2022/06/17 02:44:32;;;;;;;;;;;;;;;;;;4980755;28;20286;-86
2022/06/17 02:46:58;;;;;;;;;;;;;;;;;;4980941;28;20446;-86
2022/06/17 02:49:25;;;;;;;;;;;;;;;;;;4980764;28;19925;-86
2022/06/17 02:51:51;;;;;;;;;;;;;;;;;;4997080;28;19932;-87
2022/06/17 02:54:16;;;;;;;;;;;;;;;;;;4980422;28;19922;-86
2022/06/17 02:56:42;;;;;;;;;;;;;;;;;;4980032;28;20277;-87
2022/06/17 02:59:08;;;;;;;;;;;;;;;;;;4979912;28;19984;-87
2022/06/17 03:01:34;;;;;;;;;;;;;;;;;;4976610;28;20342;-86
2022/06/17 03:04:00;;;;;;;;;;;;;;;;;;4976715;28;19921;-86
2022/06/17 03:06:26;;;;;;;;;;;;;;;;;;4977095;28;19921;-86
2022/06/17 03:08:52;;;;;;;;;;;;;;;;;;4977181;28;20008;-84
2022/06/17 03:11:18;;;;;;;;;;;;;;;;;;4977219;28;19917;-86
2022/06/17 03:13:44;;;;;;;;;;;;;;;;;;4976931;28;19917;-86
2022/06/17 03:16:10;;;;;;;;;;;;;;;;;;4976954;28;19917;-86
2022/06/17 03:18:36;;;;;;;;;;;;;;;;;;4975697;28;19925;-86
2022/06/17 03:21:02;;;;;;;;;;;;;;;;;;4976791;28;19925;-87
2022/06/17 03:23:27;;;;;;;;;;;;;;;;;;4976889;28;20333;-87
2022/06/17 03:25:53;;;;;;;;;;;;;;;;;;4976684;28;19918;-87
2022/06/17 03:28:19;;;;;;;;;;;;;;;;;;4976630;28;20025;-86
2022/06/17 03:30:45;;;;;;;;;;;;;;;;;;4976610;28;20321;-86
2022/06/17 03:33:11;;;;;;;;;;;;;;;;;;4976439;28;19925;-85
2022/06/17 03:35:37;;;;;;;;;;;;;;;;;;4976858;28;20271;-86
2022/06/17 03:38:03;;;;;;;;;;;;;;;;;;4976770;28;19917;-86
2022/06/17 03:40:29;;;;;;;;;;;;;;;;;;4976338;28;19928;-86
2022/06/17 03:42:55;;;;;;;;;;;;;;;;;;4976245;28;19918;-85
2022/06/17 03:45:20;;;;;;;;;;;;;;;;;;4976492;28;19917;-86
2022/06/17 03:47:46;;;;;;;;;;;;;;;;;;4976286;28;19929;-86
2022/06/17 03:50:12;;;;;;;;;;;;;;;;;;4976207;28;20373;-85
2022/06/17 03:52:38;;;;;;;;;;;;;;;;;;4976044;28;20020;-86
2022/06/17 03:55:04;;;;;;;;;;;;;;;;;;4976729;28;19924;-85
2022/06/17 03:57:30;;;;;;;;;;;;;;;;;;4975985;28;20009;-84
2022/06/17 03:59:56;;;;;;;;;;;;;;;;;;4977684;28;19972;-85
2022/06/17 04:02:22;;;;;;;;;;;;;;;;;;4979303;28;19965;-86
2022/06/17 04:04:48;;;;;;;;;;;;;;;;;;4979314;28;19971;-85
2022/06/17 04:07:14;;;;;;;;;;;;;;;;;;4979114;28;19917;-86
2022/06/17 04:09:39;;;;;;;;;;;;;;;;;;4996207;28;19940;-84
2022/06/17 04:12:05;;;;;;;;;;;;;;;;;;4979389;28;19930;-87
2022/06/17 04:14:31;;;;;;;;;;;;;;;;;;4978916;28;19921;-85
2022/06/17 04:16:57;;;;;;;;;;;;;;;;;;4979350;28;20361;-85
2022/06/17 04:19:23;;;;;;;;;;;;;;;;;;4979415;28;19924;-85
2022/06/17 04:21:49;;;;;;;;;;;;;;;;;;4978947;28;20270;-86
2022/06/17 04:24:15;;;;;;;;;;;;;;;;;;4978863;28;19964;-86
2022/06/17 04:26:41;;;;;;;;;;;;;;;;;;4978852;28;19917;-86
2022/06/17 04:29:07;;;;;;;;;;;;;;;;;;4978392;28;19960;-85
2022/06/17 04:31:32;;;;;;;;;;;;;;;;;;4995094;28;20261;-85
2022/06/17 04:33:58;;;;;;;;;;;;;;;;;;4978767;28;19917;-85
2022/06/17 04:36:24;;;;;;;;;;;;;;;;;;4979031;28;20286;-85
2022/06/17 04:38:50;;;;;;;;;;;;;;;;;;4978687;28;19917;-85
2022/06/17 04:41:16;;;;;;;;;;;;;;;;;;4978642;28;19929;-84
2022/06/17 04:43:44;;;;;;;;;;;;;;;;;;4978550;28;19927;-84
2022/06/17 04:46:10;;;;;;;;;;;;;;;;;;4978635;28;20000;-85
2022/06/17 04:48:36;;;;;;;;;;;;;;;;;;4994874;28;20024;-84
2022/06/17 04:51:02;;;;;;;;;;;;;;;;;;4978512;28;20385;-84
2022/06/17 04:53:28;;;;;;;;;;;;;;;;;;4978643;28;19948;-85
2022/06/17 04:55:54;;;;;;;;;;;;;;;;;;4978846;28;19918;-85
2022/06/17 04:58:20;;;;;;;;;;;;;;;;;;4978917;28;19917;-84
2022/06/17 05:00:46;;;;;;;;;;;;;;;;;;4978480;28;20081;-83
2022/06/17 05:03:12;;;;;;;;;;;;;;;;;;4979054;28;19971;-86
2022/06/17 05:05:38;;;;;;;;;;;;;;;;;;4978634;28;20003;-83
2022/06/17 05:08:03;;;;;;;;;;;;;;;;;;4995407;28;19918;-84
2022/06/17 05:10:29;;;;;;;;;;;;;;;;;;4995201;28;19917;-82
2022/06/17 05:12:55;;;;;;;;;;;;;;;;;;4978954;28;20280;-81
2022/06/17 05:15:21;;;;;;;;;;;;;;;;;;4978997;28;19917;-84
2022/06/17 05:17:47;;;;;;;;;;;;;;;;;;4978846;28;20301;-84
2022/06/17 05:20:13;;;;;;;;;;;;;;;;;;4986768;28;20380;-86
2022/06/17 05:22:39;;;;;;;;;;;;;;;;;;5014743;28;19968;-84
2022/06/17 05:25:05;;;;;;;;;;;;;;;;;;4997308;28;19996;-83
2022/06/17 05:27:31;;;;;;;;;;;;;;;;;;4998363;28;19917;-85
2022/06/17 05:29:56;;;;;;;;;;;;;;;;;;5014716;28;19917;-82
2022/06/17 05:32:22;;;;;;;;;;;;;;;;;;4998366;28;20285;-84
2022/06/17 05:34:48;;;;;;;;;;;;;;;;;;4998288;28;19970;-83
2022/06/17 05:37:14;;;;;;;;;;;;;;;;;;4999066;28;20273;-85
2022/06/17 05:39:40;;;;;;;;;;;;;;;;;;5000159;28;19924;-83
2022/06/17 05:42:06;;;;;;;;;;;;;;;;;;5002345;28;20281;-85
2022/06/17 05:44:32;;;;;;;;;;;;;;;;;;5002603;28;19917;-85
2022/06/17 05:46:58;;;;;;;;;;;;;;;;;;5001831;28;20395;-84
2022/06/17 05:49:24;;;;;;;;;;;;;;;;;;5019264;28;19927;-83
2022/06/17 05:51:49;;;;;;;;;;;;;;;;;;5001644;28;19921;-81
2022/06/17 05:54:15;;;;;;;;;;;;;;;;;;5001477;28;20501;-84
2022/06/17 05:56:41;;;;;;;;;;;;;;;;;;5001338;28;19917;-83
2022/06/17 05:59:07;;;;;;;;;;;;;;;;;;5000999;28;19956;-84
2022/06/17 06:01:33;;;;;;;;;;;;;;;;;;5000847;28;19925;-87
2022/06/17 06:03:59;;;;;;;;;;;;;;;;;;5001544;28;19917;-86
2022/06/17 06:06:25;;;;;;;;;;;;;;;;;;5001218;28;19936;-85
2022/06/17 06:08:51;;;;;;;;;;;;;;;;;;5001425;28;19924;-84
2022/06/17 06:11:17;;;;;;;;;;;;;;;;;;4997514;28;19971;-86
2022/06/17 06:13:43;;;;;;;;;;;;;;;;;;4997313;28;20288;-86
2022/06/17 06:16:09;;;;;;;;;;;;;;;;;;4997901;28;19920;-86
2022/06/17 06:18:35;;;;;;;;;;;;;;;;;;4998586;28;19921;-87
2022/06/17 06:21:04;;;;;;;;;;;;;;;;;;5000918;28;19917;-85
2022/06/17 06:23:30;;;;;;;;;;;;;;;;;;5014533;28;19974;-84
2022/06/17 06:25:56;;;;;;;;;;;;;;;;;;4982215;28;19921;-84
2022/06/17 06:28:22;;;;;;;;;;;;;;;;;;4982418;28;20305;-83
2022/06/17 06:30:48;;;;;;;;;;;;;;;;;;4982233;28;19918;-84
2022/06/17 06:33:14;;;;;;;;;;;;;;;;;;4981212;28;19925;-86
2022/06/17 06:35:40;;;;;;;;;;;;;;;;;;4991316;28;19924;-83
2022/06/17 06:38:06;;;;;;;;;;;;;;;;;;5005874;28;19922;-85
2022/06/17 06:40:32;;;;;;;;;;;;;;;;;;4990273;28;20454;-84
2022/06/17 06:42:57;;;;;;;;;;;;;;;;;;4988445;28;19961;-85
2022/06/17 06:45:23;;;;;;;;;;;;;;;;;;4989103;28;19939;-85
2022/06/17 06:47:49;;;;;;;;;;;;;;;;;;5006336;28;20000;-86
2022/06/17 06:50:15;;;;;;;;;;;;;;;;;;4988227;28;20365;-81
2022/06/17 06:52:42;;;;;;;;;;;;;;;;;;4990543;28;19975;-84
2022/06/17 06:55:07;;;;;;;;;;;;;;;;;;4989663;28;19925;-82
2022/06/17 06:57:33;;;;;;;;;;;;;;;;;;5006134;28;20290;-83
2022/06/17 06:59:59;;;;;;;;;;;;;;;;;;4991164;28;19963;-85
2022/06/17 07:02:25;;;;;;;;;;;;;;;;;;4990935;28;19968;-84
2022/06/17 07:04:51;;;;;;;;;;;;;;;;;;4989979;28;19924;-83
2022/06/17 07:07:17;;;;;;;;;;;;;;;;;;4991219;28;20359;-86
2022/06/17 07:09:43;;;;;;;;;;;;;;;;;;4990688;28;20233;-85
2022/06/17 07:12:09;;;;;;;;;;;;;;;;;;4989239;28;20374;-84
2022/06/17 07:14:35;;;;;;;;;;;;;;;;;;4991307;28;20020;-87
2022/06/17 07:17:00;;;;;;;;;;;;;;;;;;5004528;28;19921;-83
2022/06/17 07:19:26;;;;;;;;;;;;;;;;;;4989786;28;19924;-85
2022/06/17 07:21:52;;;;;;;;;;;;;;;;;;4987726;28;19951;-83
2022/06/17 07:24:18;;;;;;;;;;;;;;;;;;4990707;28;20007;-84
2022/06/17 07:26:44;;;;;;;;;;;;;;;;;;4987514;28;19917;-84
2022/06/17 07:29:10;;;;;;;;;;;;;;;;;;4989257;28;20396;-86
2022/06/17 07:31:36;;;;;;;;;;;;;;;;;;4988532;28;19928;-85
2022/06/17 07:34:02;;;;;;;;;;;;;;;;;;4988035;28;19956;-83
2022/06/17 07:41:58;;;;;;;;;;;;;;;;;;5003582;28;20301;-84
2022/06/17 07:44:24;;;;;;;;;;;;;;;;;;4989867;28;19917;-85
2022/06/17 07:46:49;;;;;;;;;;;;;;;;;;4988704;28;19917;-87
2022/06/17 07:49:15;;;;;;;;;;;;;;;;;;4990551;28;19940;-84
2022/06/17 07:51:42;;;;;;;;;;;;;;;;;;5004239;28;19924;-85
2022/06/17 07:54:08;;;;;;;;;;;;;;;;;;5006894;28;19918;-84
2022/06/17 07:56:33;;;;;;;;;;;;;;;;;;4988782;28;20452;-83
2022/06/17 07:58:59;;;;;;;;;;;;;;;;;;5005891;28;19924;-88
2022/06/17 08:01:25;;;;;;;;;;;;;;;;;;5004154;28;19929;-83
2022/06/17 08:03:51;;;;;;;;;;;;;;;;;;4988061;28;19967;-84
2022/06/17 08:06:18;;;;;;;;;;;;;;;;;;4986848;28;19917;-84
2022/06/17 08:08:44;;;;;;;;;;;;;;;;;;4990866;28;20012;-84
2022/06/17 08:11:10;;;;;;;;;;;;;;;;;;4988824;28;20018;-85
2022/06/17 08:13:35;;;;;;;;;;;;;;;;;;4989006;28;20404;-86
2022/06/17 08:16:01;;;;;;;;;;;;;;;;;;4987667;28;19917;-87
2022/06/17 08:18:27;;;;;;;;;;;;;;;;;;4989011;28;19917;-84
2022/06/17 08:20:53;;;;;;;;;;;;;;;;;;4988803;28;20366;-83
2022/06/17 08:23:21;;;;;;;;;;;;;;;;;;4987537;28;19917;-87
2022/06/17 08:25:46;;;;;;;;;;;;;;;;;;4989311;28;19920;-91
2022/06/17 08:28:12;;;;;;;;;;;;;;;;;;4984243;28;19943;-87
2022/06/17 08:30:39;;;;;;;;;;;;;;;;;;4987014;28;20372;-90
2022/06/17 08:33:05;;;;;;;;;;;;;;;;;;4989118;28;19928;-85
2022/06/17 08:35:31;;;;;;;;;;;;;;;;;;5003811;28;20011;-89
2022/06/17 08:37:57;;;;;;;;;;;;;;;;;;4987012;28;19917;-86
2022/06/17 08:40:23;;;;;;;;;;;;;;;;;;4988492;28;19917;-87
2022/06/17 08:42:49;;;;;;;;;;;;;;;;;;4987468;28;19928;-91
2022/06/17 08:45:14;;;;;;;;;;;;;;;;;;4989864;28;19920;-84
2022/06/17 08:47:40;;;;;;;;;;;;;;;;;;4986813;28;19928;-85
2022/06/17 08:50:06;;;;;;;;;;;;;;;;;;4989060;28;19921;-88
2022/06/17 08:52:32;;;;;;;;;;;;;;;;;;5003904;28;20011;-84
2022/06/17 08:54:58;;;;;;;;;;;;;;;;;;4989594;28;19963;-88
2022/06/17 08:57:24;;;;;;;;;;;;;;;;;;4988442;28;20003;-84
2022/06/17 08:59:50;;;;;;;;;;;;;;;;;;4987701;28;19921;-88
2022/06/17 09:02:19;;;;;;;;;;;;;;;;;;4986398;28;20049;-85
2022/06/17 09:04:46;;;;;;;;;;;;;;;;;;4988814;28;19925;-89
2022/06/17 09:07:12;;;;;;;;;;;;;;;;;;4987976;28;19925;-85
2022/06/17 09:09:38;;;;;;;;;;;;;;;;;;4988946;28;19924;-88
2022/06/17 09:12:04;;;;;;;;;;;;;;;;;;4996338;28;19928;-88
2022/06/17 09:14:30;;;;;;;;;;;;;;;;;;4999600;28;20380;-84
2022/06/17 09:16:55;;;;;;;;;;;;;;;;;;5002909;28;19928;-85
2022/06/17 09:19:21;;;;;;;;;;;;;;;;;;5003815;28;20357;-86
2022/06/17 09:21:47;;;;;;;;;;;;;;;;;;5003757;28;19927;-89
2022/06/17 09:24:13;;;;;;;;;;;;;;;;;;5003950;28;20357;-87
2022/06/17 09:26:39;;;;;;;;;;;;;;;;;;5003663;28;19924;-87
2022/06/17 09:29:05;;;;;;;;;;;;;;;;;;5004013;28;19921;-86
2022/06/17 09:31:31;;;;;;;;;;;;;;;;;;5003647;28;19923;-85
2022/06/17 09:33:57;;;;;;;;;;;;;;;;;;5002811;28;20368;-86
2022/06/17 09:36:23;;;;;;;;;;;;;;;;;;5002497;28;19917;-87
2022/06/17 09:38:49;;;;;;;;;;;;;;;;;;5002979;28;19916;-88
2022/06/17 09:41:15;;;;;;;;;;;;;;;;;;5002793;28;19928;-90
2022/06/17 09:43:41;;;;;;;;;;;;;;;;;;5002210;28;19956;-86
2022/06/17 09:46:11;;;;;;;;;;;;;;;;;;5002537;28;19920;-85
2022/06/17 09:48:37;;;;;;;;;;;;;;;;;;5002451;28;19916;-88
2022/06/17 09:51:03;;;;;;;;;;;;;;;;;;5002759;28;20383;-83
2022/06/17 09:53:28;;;;;;;;;;;;;;;;;;5002175;28;20035;-83
2022/06/17 09:55:54;;;;;;;;;;;;;;;;;;5018259;28;19917;-87
2022/06/17 09:58:20;;;;;;;;;;;;;;;;;;5001399;28;19950;-82
2022/06/17 10:00:46;;;;;;;;;;;;;;;;;;5001655;28;19932;-85
2022/06/17 10:03:12;;;;;;;;;;;;;;;;;;5001545;28;19924;-82
2022/06/17 10:05:38;;;;;;;;;;;;;;;;;;5001576;28;20383;-87
2022/06/17 10:08:04;;;;;;;;;;;;;;;;;;5001685;28;19917;-84
2022/06/17 10:10:30;;;;;;;;;;;;;;;;;;5002264;28;19917;-84
2022/06/17 10:12:56;;;;;;;;;;;;;;;;;;5002024;28;19939;-86
2022/06/17 10:15:21;;;;;;;;;;;;;;;;;;5001621;28;19917;-86
2022/06/17 10:20:32;;;;;;;;;;;;;;;;;;5017987;28;19917;-87
2022/06/17 10:22:59;;;;;;;;;;;;;;;;;;5018093;28;20285;-88
2022/06/17 10:25:24;;;;;;;;;;;;;;;;;;5000494;28;19923;-85
2022/06/17 10:27:51;;;;;;;;;;;;;;;;;;5002488;28;19921;-86
2022/06/17 10:30:17;;;;;;;;;;;;;;;;;;5002917;28;19924;-84
2022/06/17 10:32:43;;;;;;;;;;;;;;;;;;5002677;28;19921;-86
2022/06/17 10:35:09;;;;;;;;;;;;;;;;;;5002409;28;19987;-88
2022/06/17 10:37:36;;;;;;;;;;;;;;;;;;5001517;28;20071;-88
2022/06/17 10:40:02;;;;;;;;;;;;;;;;;;5017336;28;20073;-87
2022/06/17 10:42:28;;;;;;;;;;;;;;;;;;5001690;28;20472;-87
2022/06/17 10:44:54;;;;;;;;;;;;;;;;;;5001252;28;19916;-85
2022/06/17 10:47:20;;;;;;;;;;;;;;;;;;5000750;28;19924;-82
2022/06/17 10:49:45;;;;;;;;;;;;;;;;;;5001139;28;19979;-84
2022/06/17 10:52:13;;;;;;;;;;;;;;;;;;5014867;28;20041;-84
2022/06/17 10:54:39;;;;;;;;;;;;;;;;;;4997311;28;19920;-87
2022/06/17 10:57:05;;;;;;;;;;;;;;;;;;4997430;28;20357;-85
2022/06/17 10:59:31;;;;;;;;;;;;;;;;;;4998122;28;20409;-90
2022/06/17 11:01:58;;;;;;;;;;;;;;;;;;4997816;28;20071;-81
2022/06/17 11:04:24;;;;;;;;;;;;;;;;;;5013709;28;20261;-84
2022/06/17 11:06:50;;;;;;;;;;;;;;;;;;4996992;28;20290;-83
2022/06/17 11:09:16;;;;;;;;;;;;;;;;;;4997762;28;19925;-84
2022/06/17 11:14:26;;;;;;;;;;;;;;;;;;5016355;28;19921;-86
2022/06/17 11:16:52;;;;;;;;;;;;;;;;;;5000214;28;20134;-87
2022/06/17 11:19:18;;;;;;;;;;;;;;;;;;5000706;28;19927;-91
2022/06/17 11:21:44;;;;;;;;;;;;;;;;;;5016767;28;19968;-85
2022/06/17 11:24:10;;;;;;;;;;;;;;;;;;4999563;28;20335;-87
2022/06/17 11:26:37;;;;;;;;;;;;;;;;;;5000025;28;20357;-83
2022/06/17 11:29:03;;;;;;;;;;;;;;;;;;4999677;28;19917;-85
2022/06/17 11:31:29;;;;;;;;;;;;;;;;;;4999548;28;20328;-85
2022/06/17 11:33:55;;;;;;;;;;;;;;;;;;4999203;28;20288;-86
2022/06/17 11:36:20;;;;;;;;;;;;;;;;;;4999318;28;19917;-86
2022/06/17 11:38:46;;;;;;;;;;;;;;;;;;4998413;28;19979;-84
2022/06/17 11:41:12;;;;;;;;;;;;;;;;;;4999471;28;19925;-85
2022/06/17 11:43:45;;;;;;;;;;;;;;;;;;4999857;28;19917;-84
2022/06/17 11:46:11;;;;;;;;;;;;;;;;;;4999926;28;19916;-87
2022/06/17 11:48:38;;;;;;;;;;;;;;;;;;4999357;28;19943;-86
2022/06/17 11:51:04;;;;;;;;;;;;;;;;;;4999443;28;19940;-82
2022/06/17 11:53:30;;;;;;;;;;;;;;;;;;4999166;28;19921;-88
2022/06/17 11:55:56;;;;;;;;;;;;;;;;;;4999589;28;19917;-87
2022/06/17 11:58:22;;;;;;;;;;;;;;;;;;4999864;28;19924;-84
2022/06/17 12:00:48;;;;;;;;;;;;;;;;;;4998844;28;20408;-85
2022/06/17 12:03:14;;;;;;;;;;;;;;;;;;4999266;28;19917;-85
2022/06/17 12:05:42;;;;;;;;;;;;;;;;;;4998729;28;19947;-83
2022/06/17 12:08:07;;;;;;;;;;;;;;;;;;4999146;28;19924;-87
2022/06/17 12:10:33;;;;;;;;;;;;;;;;;;4999043;28;19917;-87
2022/06/17 12:12:59;;;;;;;;;;;;;;;;;;4999709;28;20385;-84
2022/06/17 12:15:25;;;;;;;;;;;;;;;;;;4999059;28;19928;-87
2022/06/17 12:17:51;;;;;;;;;;;;;;;;;;4999016;28;19956;-90
2022/06/17 12:20:17;;;;;;;;;;;;;;;;;;4999073;28;19917;-85
2022/06/17 12:22:43;;;;;;;;;;;;;;;;;;4998754;28;20357;-85
2022/06/17 12:25:09;;;;;;;;;;;;;;;;;;4999254;28;19917;-84
2022/06/17 12:27:35;;;;;;;;;;;;;;;;;;4998567;28;19917;-85
2022/06/17 12:30:01;;;;;;;;;;;;;;;;;;4998105;28;20395;-87
2022/06/17 12:32:27;;;;;;;;;;;;;;;;;;4999318;28;20025;-83
2022/06/17 12:34:53;;;;;;;;;;;;;;;;;;4998985;28;19972;-85
2022/06/17 12:37:19;;;;;;;;;;;;;;;;;;4998741;28;20375;-86
2022/06/17 12:39:45;;;;;;;;;;;;;;;;;;4998972;28;19917;-84
2022/06/17 12:42:11;;;;;;;;;;;;;;;;;;5015009;28;20114;-83
2022/06/17 12:44:38;;;;;;;;;;;;;;;;;;4998647;28;20418;-83
2022/06/17 12:47:04;;;;;;;;;;;;;;;;;;5015247;28;19916;-85
2022/06/17 12:54:59;;;;;;;;;;;;;;;;;;5014736;28;19916;-81
2022/06/17 12:57:25;;;;;;;;;;;;;;;;;;4998430;28;19928;-84
2022/06/17 12:59:51;;;;;;;;;;;;;;;;;;4998981;28;19921;-85
2022/06/17 13:02:17;;;;;;;;;;;;;;;;;;4998365;28;19917;-84
2022/06/17 13:04:43;;;;;;;;;;;;;;;;;;4998580;28;19940;-88
2022/06/17 13:07:09;;;;;;;;;;;;;;;;;;4998894;28;19968;-88
2022/06/17 13:09:35;;;;;;;;;;;;;;;;;;4998509;28;20357;-85
2022/06/17 13:12:02;;;;;;;;;;;;;;;;;;4998048;28;19925;-82
2022/06/17 13:14:28;;;;;;;;;;;;;;;;;;4998819;28;19921;-84
2022/06/17 13:16:54;;;;;;;;;;;;;;;;;;4997909;28;19917;-81
2022/06/17 13:19:20;;;;;;;;;;;;;;;;;;5014530;28;19921;-82
2022/06/17 13:21:46;;;;;;;;;;;;;;;;;;5014836;28;19929;-83
2022/06/17 13:24:11;;;;;;;;;;;;;;;;;;4998430;28;19940;-85
2022/06/17 13:26:37;;;;;;;;;;;;;;;;;;4997723;28;19917;-83
2022/06/17 13:29:03;;;;;;;;;;;;;;;;;;5014711;28;19917;-85
2022/06/17 13:31:29;;;;;;;;;;;;;;;;;;4998183;28;19924;-84
2022/06/17 13:33:55;;;;;;;;;;;;;;;;;;4997639;28;19948;-80
2022/06/17 13:36:21;;;;;;;;;;;;;;;;;;4998108;28;20012;-85
2022/06/17 13:38:47;;;;;;;;;;;;;;;;;;5014523;28;19917;-87
2022/06/17 13:41:14;;;;;;;;;;;;;;;;;;4998556;28;19923;-83
2022/06/17 13:43:40;;;;;;;;;;;;;;;;;;4997858;28;19917;-84
2022/06/17 13:46:06;;;;;;;;;;;;;;;;;;4998029;28;19917;-84
2022/06/17 13:48:32;;;;;;;;;;;;;;;;;;4997716;28;19917;-83
2022/06/17 13:50:58;;;;;;;;;;;;;;;;;;4998096;28;20038;-87
2022/06/17 13:53:24;;;;;;;;;;;;;;;;;;4997612;28;19921;-85
2022/06/17 13:55:51;;;;;;;;;;;;;;;;;;5014526;28;19917;-85
2022/06/17 13:58:17;;;;;;;;;;;;;;;;;;4998172;28;19920;-87
2022/06/17 14:00:43;;;;;;;;;;;;;;;;;;5013935;28;20017;-87
2022/06/17 14:03:09;;;;;;;;;;;;;;;;;;5001705;28;19917;-86
2022/06/17 14:05:35;;;;;;;;;;;;;;;;;;5002052;28;20427;-84
2022/06/17 14:08:01;;;;;;;;;;;;;;;;;;5001029;28;19921;-83
2022/06/17 14:10:26;;;;;;;;;;;;;;;;;;5000579;28;20376;-83
2022/06/17 14:12:52;;;;;;;;;;;;;;;;;;4997933;28;20016;-85
2022/06/17 14:15:18;;;;;;;;;;;;;;;;;;4997992;28;19996;-84
2022/06/17 14:17:44;;;;;;;;;;;;;;;;;;4997609;28;20265;-82
2022/06/17 14:20:10;;;;;;;;;;;;;;;;;;4997356;28;19924;-85
2022/06/17 14:22:37;;;;;;;;;;;;;;;;;;4998216;28;20274;-83
2022/06/17 14:25:03;;;;;;;;;;;;;;;;;;4997938;28;20448;-86
2022/06/17 14:27:29;;;;;;;;;;;;;;;;;;4997806;28;20012;-84
2022/06/17 14:29:55;;;;;;;;;;;;;;;;;;4997409;28;19947;-86
2022/06/17 14:32:21;;;;;;;;;;;;;;;;;;4998267;28;19925;-88
2022/06/17 14:34:47;;;;;;;;;;;;;;;;;;5014423;28;19983;-86
2022/06/17 14:37:13;;;;;;;;;;;;;;;;;;4997975;28;19921;-85
2022/06/17 14:39:39;;;;;;;;;;;;;;;;;;4997350;28;19924;-85
2022/06/17 14:42:08;;;;;;;;;;;;;;;;;;4996864;28;19929;-86
2022/06/17 14:44:34;;;;;;;;;;;;;;;;;;4997115;28;20266;-85
2022/06/17 14:47:00;;;;;;;;;;;;;;;;;;4997257;28;19917;-86
2022/06/17 14:49:26;;;;;;;;;;;;;;;;;;4999907;28;20361;-89
2022/06/17 14:51:52;;;;;;;;;;;;;;;;;;5015902;28;19928;-87
2022/06/17 14:54:18;;;;;;;;;;;;;;;;;;5012957;28;20129;-84
2022/06/17 14:56:44;;;;;;;;;;;;;;;;;;4997354;28;19916;-86
2022/06/17 14:59:10;;;;;;;;;;;;;;;;;;4997765;28;19928;-85
2022/06/17 15:01:36;;;;;;;;;;;;;;;;;;4996361;28;19951;-84
2022/06/17 15:04:02;;;;;;;;;;;;;;;;;;4996850;28;20051;-88
2022/06/17 15:06:29;;;;;;;;;;;;;;;;;;4996922;28;20303;-88
2022/06/17 15:08:55;;;;;;;;;;;;;;;;;;5013152;28;20050;-83
2022/06/17 15:11:22;;;;;;;;;;;;;;;;;;4996419;28;20010;-88
2022/06/17 15:16:33;;;;;;;;;;;;;;;;;;5016120;28;19921;-86
2022/06/17 15:18:59;;;;;;;;;;;;;;;;;;5000544;28;20261;-86
2022/06/17 15:21:24;;;;;;;;;;;;;;;;;;5000394;28;19916;-85
2022/06/17 15:23:50;;;;;;;;;;;;;;;;;;4999949;28;19917;-82
2022/06/17 15:26:17;;;;;;;;;;;;;;;;;;5000032;28;20010;-87
2022/06/17 15:28:43;;;;;;;;;;;;;;;;;;4999917;28;19921;-83
2022/06/17 15:31:09;;;;;;;;;;;;;;;;;;5016503;28;20407;-88
2022/06/17 15:33:35;;;;;;;;;;;;;;;;;;4999872;28;19924;-84
2022/06/17 15:36:01;;;;;;;;;;;;;;;;;;4999944;28;20369;-89
2022/06/17 15:38:27;;;;;;;;;;;;;;;;;;5000117;28;19961;-87
2022/06/17 15:40:53;;;;;;;;;;;;;;;;;;5016906;28;19921;-85
2022/06/17 15:43:19;;;;;;;;;;;;;;;;;;4999580;28;19924;-88
2022/06/17 15:45:46;;;;;;;;;;;;;;;;;;4999310;28;19957;-84
2022/06/17 15:48:12;;;;;;;;;;;;;;;;;;4999122;28;19979;-84
2022/06/17 15:50:38;;;;;;;;;;;;;;;;;;4999522;28;19917;-88
2022/06/17 15:53:04;;;;;;;;;;;;;;;;;;4999183;28;19944;-86
2022/06/17 15:55:30;;;;;;;;;;;;;;;;;;4998863;28;19968;-89
2022/06/17 15:57:55;;;;;;;;;;;;;;;;;;5015269;28;19975;-85
2022/06/17 16:00:21;;;;;;;;;;;;;;;;;;4998677;28;20429;-85
2022/06/17 16:02:47;;;;;;;;;;;;;;;;;;4998662;28;20349;-80
2022/06/17 16:05:13;;;;;;;;;;;;;;;;;;4999025;28;20284;-85
2022/06/17 16:07:39;;;;;;;;;;;;;;;;;;4998624;28;19916;-86
2022/06/17 16:10:05;;;;;;;;;;;;;;;;;;4998866;28;20368;-85
2022/06/17 16:12:31;;;;;;;;;;;;;;;;;;4998477;28;19929;-86
2022/06/17 16:14:57;;;;;;;;;;;;;;;;;;4998609;28;20376;-84
2022/06/17 16:17:24;;;;;;;;;;;;;;;;;;4998446;28;20276;-85
2022/06/17 16:19:50;;;;;;;;;;;;;;;;;;4998578;28;19917;-83
2022/06/17 16:22:16;;;;;;;;;;;;;;;;;;4998379;28;20365;-85
2022/06/17 16:24:42;;;;;;;;;;;;;;;;;;4998023;28;19917;-88
2022/06/17 16:27:08;;;;;;;;;;;;;;;;;;4998326;28;20012;-84
2022/06/17 16:29:34;;;;;;;;;;;;;;;;;;5014662;28;19976;-86
2022/06/17 16:32:00;;;;;;;;;;;;;;;;;;4998003;28;20003;-88
2022/06/17 16:34:26;;;;;;;;;;;;;;;;;;4998106;28;19920;-87
2022/06/17 16:36:51;;;;;;;;;;;;;;;;;;4998119;28;19917;-84
2022/06/17 16:39:20;;;;;;;;;;;;;;;;;;4998071;28;20000;-87
2022/06/17 16:44:31;;;;;;;;;;;;;;;;;;5014911;28;19917;-84
2022/06/17 16:46:57;;;;;;;;;;;;;;;;;;4998119;28;19971;-87
2022/06/17 16:49:23;;;;;;;;;;;;;;;;;;4998129;28;20262;-85
2022/06/17 16:51:49;;;;;;;;;;;;;;;;;;4998555;28;20384;-82
2022/06/17 16:54:15;;;;;;;;;;;;;;;;;;4998154;28;19921;-84
2022/06/17 16:56:41;;;;;;;;;;;;;;;;;;4998235;28;19916;-86
2022/06/17 16:59:08;;;;;;;;;;;;;;;;;;4997913;28;20377;-85
2022/06/17 17:01:34;;;;;;;;;;;;;;;;;;5014282;28;19925;-86